Terminal Aerodrome Forecast
Issued by NWS Portland, OR

Home | Current Version | Previous Version | Text Only | Print | Product List | Glossary On
Versions: 1 2 3 4 5 6 7 8 9 10 11 12 13 14 15 16
000
FTUS46 KPQR 312334
TAFEUG
TAF
KEUG 312334Z 0100/0124 VRB05KT P6SM -SHRA BKN025 OVC050
     FM010130 VRB04KT P6SM VCSH SCT025 BKN040
     FM011200 VRB03KT 6SM BR FEW008 SCT015 BKN025
     FM011700 23005KT P6SM SCT020 BKN050=

USA.gov is the U.S. government's official web portal to all federal, state and local government web resources and services.